sensor_id;sensor_type;location;lat;lon;timestamp;temperature;humidity
3756;DHT22;1893;52.526;13.360;2022-09-03T00:01:36;15.80;1.00
3756;DHT22;1893;52.526;13.360;2022-09-03T00:04:14;15.80;1.00
3756;DHT22;1893;52.526;13.360;2022-09-03T00:06:48;15.80;1.00
3756;DHT22;1893;52.526;13.360;2022-09-03T00:09:25;15.80;1.00
3756;DHT22;1893;52.526;13.360;2022-09-03T00:14:38;15.70;1.00
3756;DHT22;1893;52.526;13.360;2022-09-03T00:17:10;15.70;1.00
3756;DHT22;1893;52.526;13.360;2022-09-03T00:19:43;15.70;1.00
3756;DHT22;1893;52.526;13.360;2022-09-03T00:22:18;15.70;1.00
3756;DHT22;1893;52.526;13.360;2022-09-03T00:24:46;15.80;1.00
3756;DHT22;1893;52.526;13.360;2022-09-03T00:27:17;15.60;1.00
3756;DHT22;1893;52.526;13.360;2022-09-03T00:30:00;15.60;1.00
3756;DHT22;1893;52.526;13.360;2022-09-03T00:35:13;15.50;1.00
3756;DHT22;1893;52.526;13.360;2022-09-03T00:37:41;15.50;1.00
3756;DHT22;1893;52.526;13.360;2022-09-03T00:40:14;15.50;1.00
3756;DHT22;1893;52.526;13.360;2022-09-03T00:42:53;15.50;1.00
3756;DHT22;1893;52.526;13.360;2022-09-03T00:48:03;15.40;1.00
3756;DHT22;1893;52.526;13.360;2022-09-03T00:56:38;15.40;1.00
3756;DHT22;1893;52.526;13.360;2022-09-03T01:01:50;15.30;1.00
3756;DHT22;1893;52.526;13.360;2022-09-03T01:10:15;15.20;1.00
3756;DHT22;1893;52.526;13.360;2022-09-03T01:12:55;15.10;1.00
3756;DHT22;1893;52.526;13.360;2022-09-03T01:15:36;15.10;1.00
3756;DHT22;1893;52.526;13.360;2022-09-03T01:18:10;15.10;1.00
3756;DHT22;1893;52.526;13.360;2022-09-03T01:26:22;15.00;1.00
3756;DHT22;1893;52.526;13.360;2022-09-03T01:29:09;15.00;1.00
3756;DHT22;1893;52.526;13.360;2022-09-03T01:39:58;14.90;1.00
3756;DHT22;1893;52.526;13.360;2022-09-03T01:51:02;14.90;1.00
3756;DHT22;1893;52.526;13.360;2022-09-03T01:53:50;14.90;1.00
3756;DHT22;1893;52.526;13.360;2022-09-03T01:59:14;14.80;1.00
3756;DHT22;1893;52.526;13.360;2022-09-03T02:02:24;14.80;54.10
3756;DHT22;1893;52.526;13.360;2022-09-03T02:04:59;14.80;38.80
3756;DHT22;1893;52.526;13.360;2022-09-03T02:07:31;14.80;12.00
3756;DHT22;1893;52.526;13.360;2022-09-03T02:09:59;14.80;19.10
3756;DHT22;1893;52.526;13.360;2022-09-03T02:12:27;14.70;87.00
3756;DHT22;1893;52.526;13.360;2022-09-03T02:14:54;14.70;45.70
3756;DHT22;1893;52.526;13.360;2022-09-03T02:17:20;14.70;47.50
3756;DHT22;1893;52.526;13.360;2022-09-03T02:19:46;14.70;90.00
3756;DHT22;1893;52.526;13.360;2022-09-03T02:22:12;14.70;51.50
3756;DHT22;1893;52.526;13.360;2022-09-03T02:24:37;14.70;99.90
3756;DHT22;1893;52.526;13.360;2022-09-03T02:27:03;14.70;99.90
3756;DHT22;1893;52.526;13.360;2022-09-03T02:29:32;14.60;99.90
3756;DHT22;1893;52.526;13.360;2022-09-03T02:31:58;14.60;99.90
3756;DHT22;1893;52.526;13.360;2022-09-03T02:34:23;14.60;99.90
3756;DHT22;1893;52.526;13.360;2022-09-03T02:36:49;14.50;99.90
3756;DHT22;1893;52.526;13.360;2022-09-03T02:39:15;14.50;99.90
3756;DHT22;1893;52.526;13.360;2022-09-03T02:41:41;14.50;99.90
3756;DHT22;1893;52.526;13.360;2022-09-03T02:44:19;14.50;99.90
3756;DHT22;1893;52.526;13.360;2022-09-03T02:46:57;14.40;99.90
3756;DHT22;1893;52.526;13.360;2022-09-03T02:49:23;14.50;99.90
3756;DHT22;1893;52.526;13.360;2022-09-03T02:51:48;14.40;99.90
3756;DHT22;1893;52.526;13.360;2022-09-03T02:54:14;14.40;99.90
3756;DHT22;1893;52.526;13.360;2022-09-03T02:56:40;14.30;99.90
3756;DHT22;1893;52.526;13.360;2022-09-03T02:59:07;14.40;99.90
3756;DHT22;1893;52.526;13.360;2022-09-03T03:01:33;14.50;99.90
3756;DHT22;1893;52.526;13.360;2022-09-03T03:03:59;14.50;99.90
3756;DHT22;1893;52.526;13.360;2022-09-03T03:06:24;14.30;99.90
3756;DHT22;1893;52.526;13.360;2022-09-03T03:08:50;14.30;99.90
3756;DHT22;1893;52.526;13.360;2022-09-03T03:11:18;14.30;99.90
3756;DHT22;1893;52.526;13.360;2022-09-03T03:13:45;14.30;99.90
3756;DHT22;1893;52.526;13.360;2022-09-03T03:16:12;14.30;99.90
3756;DHT22;1893;52.526;13.360;2022-09-03T03:18:38;14.20;99.90
3756;DHT22;1893;52.526;13.360;2022-09-03T03:21:09;14.30;99.90
3756;DHT22;1893;52.526;13.360;2022-09-03T03:23:36;14.20;99.90
3756;DHT22;1893;52.526;13.360;2022-09-03T03:26:07;14.10;1.00
3756;DHT22;1893;52.526;13.360;2022-09-03T03:28:34;14.10;1.00
3756;DHT22;1893;52.526;13.360;2022-09-03T03:31:07;14.10;1.00
3756;DHT22;1893;52.526;13.360;2022-09-03T03:33:33;14.10;1.00
3756;DHT22;1893;52.526;13.360;2022-09-03T03:36:06;14.10;1.00
3756;DHT22;1893;52.526;13.360;2022-09-03T03:38:32;14.10;1.00
3756;DHT22;1893;52.526;13.360;2022-09-03T03:40:58;14.10;99.90
3756;DHT22;1893;52.526;13.360;2022-09-03T03:43:23;14.10;99.90
3756;DHT22;1893;52.526;13.360;2022-09-03T03:45:58;14.00;99.90
3756;DHT22;1893;52.526;13.360;2022-09-03T03:48:25;14.00;1.00
3756;DHT22;1893;52.526;13.360;2022-09-03T03:50:51;14.00;1.00
3756;DHT22;1893;52.526;13.360;2022-09-03T03:53:17;13.90;1.00
3756;DHT22;1893;52.526;13.360;2022-09-03T03:55:43;13.90;1.00
3756;DHT22;1893;52.526;13.360;2022-09-03T03:58:08;13.90;1.00
3756;DHT22;1893;52.526;13.360;2022-09-03T04:00:34;14.00;1.00
3756;DHT22;1893;52.526;13.360;2022-09-03T04:03:01;14.00;1.00
3756;DHT22;1893;52.526;13.360;2022-09-03T04:05:27;14.00;1.00
3756;DHT22;1893;52.526;13.360;2022-09-03T04:07:52;14.00;1.00
3756;DHT22;1893;52.526;13.360;2022-09-03T04:10:18;14.00;1.00
3756;DHT22;1893;52.526;13.360;2022-09-03T04:12:44;14.00;1.00
3756;DHT22;1893;52.526;13.360;2022-09-03T04:15:09;14.00;1.00
3756;DHT22;1893;52.526;13.360;2022-09-03T04:17:35;14.10;1.00
3756;DHT22;1893;52.526;13.360;2022-09-03T04:20:01;14.00;1.00
3756;DHT22;1893;52.526;13.360;2022-09-03T04:22:27;14.10;1.00
3756;DHT22;1893;52.526;13.360;2022-09-03T04:24:53;14.00;1.00
3756;DHT22;1893;52.526;13.360;2022-09-03T04:27:19;14.00;1.00
3756;DHT22;1893;52.526;13.360;2022-09-03T04:29:44;14.00;1.00
3756;DHT22;1893;52.526;13.360;2022-09-03T04:32:10;13.90;1.00
3756;DHT22;1893;52.526;13.360;2022-09-03T04:34:54;13.90;1.00
3756;DHT22;1893;52.526;13.360;2022-09-03T04:37:20;13.90;1.00
3756;DHT22;1893;52.526;13.360;2022-09-03T04:39:46;13.90;1.00
3756;DHT22;1893;52.526;13.360;2022-09-03T04:42:11;13.90;1.00
3756;DHT22;1893;52.526;13.360;2022-09-03T04:44:37;13.90;1.00
3756;DHT22;1893;52.526;13.360;2022-09-03T04:47:04;13.90;99.90
3756;DHT22;1893;52.526;13.360;2022-09-03T04:49:29;13.90;49.60
3756;DHT22;1893;52.526;13.360;2022-09-03T04:51:55;13.80;99.90
3756;DHT22;1893;52.526;13.360;2022-09-03T04:54:21;13.90;99.90
3756;DHT22;1893;52.526;13.360;2022-09-03T04:56:46;13.80;99.90
3756;DHT22;1893;52.526;13.360;2022-09-03T04:59:12;13.80;99.90
3756;DHT22;1893;52.526;13.360;2022-09-03T05:01:38;13.80;99.90
3756;DHT22;1893;52.526;13.360;2022-09-03T05:04:05;13.80;1.00
3756;DHT22;1893;52.526;13.360;2022-09-03T05:06:32;13.90;1.00
3756;DHT22;1893;52.526;13.360;2022-09-03T05:08:58;14.00;1.00
3756;DHT22;1893;52.526;13.360;2022-09-03T05:11:25;14.00;1.00
3756;DHT22;1893;52.526;13.360;2022-09-03T05:13:54;14.00;1.00
3756;DHT22;1893;52.526;13.360;2022-09-03T05:16:21;14.00;1.00
3756;DHT22;1893;52.526;13.360;2022-09-03T05:18:47;14.00;25.90
3756;DHT22;1893;52.526;13.360;2022-09-03T05:21:16;14.00;99.90
3756;DHT22;1893;52.526;13.360;2022-09-03T05:23:44;14.00;99.90
3756;DHT22;1893;52.526;13.360;2022-09-03T05:26:16;14.00;99.90
3756;DHT22;1893;52.526;13.360;2022-09-03T05:28:42;13.90;1.00
3756;DHT22;1893;52.526;13.360;2022-09-03T05:31:08;14.00;1.00
3756;DHT22;1893;52.526;13.360;2022-09-03T05:33:36;14.00;1.00
3756;DHT22;1893;52.526;13.360;2022-09-03T05:36:08;14.00;99.90
3756;DHT22;1893;52.526;13.360;2022-09-03T05:38:34;14.10;99.90
3756;DHT22;1893;52.526;13.360;2022-09-03T05:41:01;14.10;99.90
3756;DHT22;1893;52.526;13.360;2022-09-03T05:43:28;14.20;99.90
3756;DHT22;1893;52.526;13.360;2022-09-03T05:45:58;14.10;1.00
3756;DHT22;1893;52.526;13.360;2022-09-03T05:48:25;14.10;99.90
3756;DHT22;1893;52.526;13.360;2022-09-03T05:51:01;14.20;1.00
3756;DHT22;1893;52.526;13.360;2022-09-03T05:53:28;14.20;1.00
3756;DHT22;1893;52.526;13.360;2022-09-03T05:55:58;14.30;99.90
3756;DHT22;1893;52.526;13.360;2022-09-03T05:58:34;14.30;99.90
3756;DHT22;1893;52.526;13.360;2022-09-03T06:01:09;14.50;99.90
3756;DHT22;1893;52.526;13.360;2022-09-03T06:03:35;14.40;99.90
3756;DHT22;1893;52.526;13.360;2022-09-03T06:06:01;14.40;99.90
3756;DHT22;1893;52.526;13.360;2022-09-03T06:08:29;14.40;1.00
3756;DHT22;1893;52.526;13.360;2022-09-03T06:11:01;14.40;99.90
3756;DHT22;1893;52.526;13.360;2022-09-03T06:13:28;14.40;1.00
3756;DHT22;1893;52.526;13.360;2022-09-03T06:16:02;14.40;1.00
3756;DHT22;1893;52.526;13.360;2022-09-03T06:18:28;14.50;99.90
3756;DHT22;1893;52.526;13.360;2022-09-03T06:20:59;14.50;99.90
3756;DHT22;1893;52.526;13.360;2022-09-03T06:23:26;14.60;99.90
3756;DHT22;1893;52.526;13.360;2022-09-03T06:26:09;14.80;90.90
3756;DHT22;1893;52.526;13.360;2022-09-03T06:28:36;15.00;82.10
3756;DHT22;1893;52.526;13.360;2022-09-03T06:31:05;14.90;99.90
3756;DHT22;1893;52.526;13.360;2022-09-03T06:33:32;15.00;99.90
3756;DHT22;1893;52.526;13.360;2022-09-03T06:35:59;15.00;1.00
3756;DHT22;1893;52.526;13.360;2022-09-03T06:38:27;15.00;99.90
3756;DHT22;1893;52.526;13.360;2022-09-03T06:40:58;14.90;1.00
3756;DHT22;1893;52.526;13.360;2022-09-03T06:43:26;15.10;99.90
3756;DHT22;1893;52.526;13.360;2022-09-03T06:45:56;15.00;99.90
3756;DHT22;1893;52.526;13.360;2022-09-03T06:48:22;15.10;74.50
3756;DHT22;1893;52.526;13.360;2022-09-03T06:51:01;15.20;1.00
3756;DHT22;1893;52.526;13.360;2022-09-03T06:53:33;15.20;1.00
3756;DHT22;1893;52.526;13.360;2022-09-03T06:56:05;15.30;1.00
3756;DHT22;1893;52.526;13.360;2022-09-03T06:58:33;15.40;1.00
3756;DHT22;1893;52.526;13.360;2022-09-03T07:01:07;15.60;99.90
3756;DHT22;1893;52.526;13.360;2022-09-03T07:03:33;16.20;1.00
3756;DHT22;1893;52.526;13.360;2022-09-03T07:06:04;16.30;99.90
3756;DHT22;1893;52.526;13.360;2022-09-03T07:08:30;16.30;99.90
3756;DHT22;1893;52.526;13.360;2022-09-03T07:10:58;16.50;99.90
3756;DHT22;1893;52.526;13.360;2022-09-03T07:13:24;16.70;3.30
3756;DHT22;1893;52.526;13.360;2022-09-03T07:16:01;16.70;1.00
3756;DHT22;1893;52.526;13.360;2022-09-03T07:18:27;16.70;1.00
3756;DHT22;1893;52.526;13.360;2022-09-03T07:20:59;16.60;13.10
3756;DHT22;1893;52.526;13.360;2022-09-03T07:23:24;16.80;20.50
3756;DHT22;1893;52.526;13.360;2022-09-03T07:25:58;17.10;1.00
3756;DHT22;1893;52.526;13.360;2022-09-03T07:28:25;17.40;1.00
3756;DHT22;1893;52.526;13.360;2022-09-03T07:30:52;17.20;1.00
3756;DHT22;1893;52.526;13.360;2022-09-03T07:33:18;17.00;1.00
3756;DHT22;1893;52.526;13.360;2022-09-03T07:35:45;16.80;1.00
3756;DHT22;1893;52.526;13.360;2022-09-03T07:38:15;16.70;99.90
3756;DHT22;1893;52.526;13.360;2022-09-03T07:40:41;16.80;99.90
3756;DHT22;1893;52.526;13.360;2022-09-03T07:43:06;16.80;99.90
3756;DHT22;1893;52.526;13.360;2022-09-03T07:45:32;16.90;99.90
3756;DHT22;1893;52.526;13.360;2022-09-03T07:47:58;16.80;1.00
3756;DHT22;1893;52.526;13.360;2022-09-03T07:50:24;16.90;99.90
3756;DHT22;1893;52.526;13.360;2022-09-03T07:52:55;16.90;2.00
3756;DHT22;1893;52.526;13.360;2022-09-03T07:55:22;16.90;17.90
3756;DHT22;1893;52.526;13.360;2022-09-03T07:57:48;16.90;1.00
3756;DHT22;1893;52.526;13.360;2022-09-03T08:00:14;16.90;1.00
3756;DHT22;1893;52.526;13.360;2022-09-03T08:02:39;16.90;1.00
3756;DHT22;1893;52.526;13.360;2022-09-03T08:05:05;17.00;1.00
3756;DHT22;1893;52.526;13.360;2022-09-03T08:07:31;17.10;1.00
3756;DHT22;1893;52.526;13.360;2022-09-03T08:09:57;17.20;1.00
3756;DHT22;1893;52.526;13.360;2022-09-03T08:12:23;17.30;1.00
3756;DHT22;1893;52.526;13.360;2022-09-03T08:14:49;17.40;1.00
3756;DHT22;1893;52.526;13.360;2022-09-03T08:17:14;17.50;1.00
3756;DHT22;1893;52.526;13.360;2022-09-03T08:19:40;17.50;1.00
3756;DHT22;1893;52.526;13.360;2022-09-03T08:22:06;17.60;1.00
3756;DHT22;1893;52.526;13.360;2022-09-03T08:24:32;17.60;1.00
3756;DHT22;1893;52.526;13.360;2022-09-03T08:26:59;17.70;1.00
3756;DHT22;1893;52.526;13.360;2022-09-03T08:29:25;18.00;1.00
3756;DHT22;1893;52.526;13.360;2022-09-03T08:31:52;18.60;1.00
3756;DHT22;1893;52.526;13.360;2022-09-03T08:34:18;18.90;1.00
3756;DHT22;1893;52.526;13.360;2022-09-03T08:36:44;19.20;1.00
3756;DHT22;1893;52.526;13.360;2022-09-03T08:39:11;19.30;1.00
3756;DHT22;1893;52.526;13.360;2022-09-03T08:42:11;19.20;1.00
3756;DHT22;1893;52.526;13.360;2022-09-03T08:50:26;19.10;1.00
3756;DHT22;1893;52.526;13.360;2022-09-03T08:53:17;19.10;1.00
3756;DHT22;1893;52.526;13.360;2022-09-03T08:55:51;19.20;1.00
3756;DHT22;1893;52.526;13.360;2022-09-03T08:58:20;19.40;1.00
3756;DHT22;1893;52.526;13.360;2022-09-03T09:07:17;19.40;1.00
3756;DHT22;1893;52.526;13.360;2022-09-03T09:09:49;19.50;1.00
3756;DHT22;1893;52.526;13.360;2022-09-03T09:12:57;19.70;1.00
3756;DHT22;1893;52.526;13.360;2022-09-03T09:16:05;19.70;99.90
3756;DHT22;1893;52.526;13.360;2022-09-03T09:18:45;20.00;99.90
3756;DHT22;1893;52.526;13.360;2022-09-03T09:21:16;20.00;99.90
3756;DHT22;1893;52.526;13.360;2022-09-03T09:23:47;20.20;99.90
3756;DHT22;1893;52.526;13.360;2022-09-03T09:26:18;20.20;99.90
3756;DHT22;1893;52.526;13.360;2022-09-03T09:28:52;20.40;99.90
3756;DHT22;1893;52.526;13.360;2022-09-03T09:31:18;20.30;99.90
3756;DHT22;1893;52.526;13.360;2022-09-03T09:33:44;20.60;99.90
3756;DHT22;1893;52.526;13.360;2022-09-03T09:36:15;20.80;99.90
3756;DHT22;1893;52.526;13.360;2022-09-03T09:38:42;21.10;99.90
3756;DHT22;1893;52.526;13.360;2022-09-03T09:41:16;21.10;99.90
3756;DHT22;1893;52.526;13.360;2022-09-03T09:43:45;20.90;99.90
3756;DHT22;1893;52.526;13.360;2022-09-03T09:46:36;21.00;99.90
3756;DHT22;1893;52.526;13.360;2022-09-03T09:49:17;21.10;99.90
3756;DHT22;1893;52.526;13.360;2022-09-03T09:51:46;21.30;99.90
3756;DHT22;1893;52.526;13.360;2022-09-03T09:54:17;21.80;99.90
3756;DHT22;1893;52.526;13.360;2022-09-03T09:56:43;22.00;99.90
3756;DHT22;1893;52.526;13.360;2022-09-03T09:59:10;22.00;99.90
3756;DHT22;1893;52.526;13.360;2022-09-03T10:01:41;22.20;99.90
3756;DHT22;1893;52.526;13.360;2022-09-03T10:04:12;22.20;99.90
3756;DHT22;1893;52.526;13.360;2022-09-03T10:06:53;22.30;99.90
3756;DHT22;1893;52.526;13.360;2022-09-03T10:09:21;22.80;99.90
3756;DHT22;1893;52.526;13.360;2022-09-03T10:15:17;23.40;99.90
3756;DHT22;1893;52.526;13.360;2022-09-03T10:17:45;23.80;99.90
3756;DHT22;1893;52.526;13.360;2022-09-03T10:25:43;26.20;99.90
3756;DHT22;1893;52.526;13.360;2022-09-03T10:28:20;27.00;99.90
3756;DHT22;1893;52.526;13.360;2022-09-03T10:33:27;28.00;99.90
3756;DHT22;1893;52.526;13.360;2022-09-03T10:36:27;27.40;99.90
3756;DHT22;1893;52.526;13.360;2022-09-03T10:39:05;26.70;99.90
3756;DHT22;1893;52.526;13.360;2022-09-03T10:44:41;24.30;99.90
3756;DHT22;1893;52.526;13.360;2022-09-03T10:50:09;25.30;99.90
3756;DHT22;1893;52.526;13.360;2022-09-03T10:53:13;24.00;99.90
3756;DHT22;1893;52.526;13.360;2022-09-03T10:56:00;23.20;99.90
3756;DHT22;1893;52.526;13.360;2022-09-03T11:03:59;21.80;99.90
3756;DHT22;1893;52.526;13.360;2022-09-03T11:06:39;21.50;99.90
3756;DHT22;1893;52.526;13.360;2022-09-03T11:09:14;21.40;99.90
3756;DHT22;1893;52.526;13.360;2022-09-03T11:11:46;21.30;99.90
3756;DHT22;1893;52.526;13.360;2022-09-03T11:14:17;21.60;99.90
3756;DHT22;1893;52.526;13.360;2022-09-03T11:16:54;22.60;99.90
3756;DHT22;1893;52.526;13.360;2022-09-03T11:19:35;22.60;99.90
3756;DHT22;1893;52.526;13.360;2022-09-03T11:22:03;22.30;99.90
3756;DHT22;1893;52.526;13.360;2022-09-03T11:24:31;23.30;99.90
3756;DHT22;1893;52.526;13.360;2022-09-03T11:27:25;23.70;99.90
3756;DHT22;1893;52.526;13.360;2022-09-03T11:33:00;22.90;99.90
3756;DHT22;1893;52.526;13.360;2022-09-03T11:38:01;23.70;99.90
3756;DHT22;1893;52.526;13.360;2022-09-03T11:40:33;23.30;99.90
3756;DHT22;1893;52.526;13.360;2022-09-03T11:43:13;22.90;99.90
3756;DHT22;1893;52.526;13.360;2022-09-03T11:48:50;22.00;99.90
3756;DHT22;1893;52.526;13.360;2022-09-03T11:54:25;22.20;99.90
3756;DHT22;1893;52.526;13.360;2022-09-03T11:56:50;22.60;99.90
3756;DHT22;1893;52.526;13.360;2022-09-03T11:59:27;22.70;99.90
3756;DHT22;1893;52.526;13.360;2022-09-03T12:02:25;22.70;99.90
3756;DHT22;1893;52.526;13.360;2022-09-03T12:19:03;21.80;99.90
3756;DHT22;1893;52.526;13.360;2022-09-03T12:21:37;21.70;99.90
3756;DHT22;1893;52.526;13.360;2022-09-03T12:24:03;21.70;99.90
3756;DHT22;1893;52.526;13.360;2022-09-03T12:26:29;21.70;99.90
3756;DHT22;1893;52.526;13.360;2022-09-03T12:28:56;21.50;99.90
3756;DHT22;1893;52.526;13.360;2022-09-03T12:31:23;21.50;99.90
3756;DHT22;1893;52.526;13.360;2022-09-03T12:33:55;21.50;99.90
3756;DHT22;1893;52.526;13.360;2022-09-03T12:36:23;21.50;99.90
3756;DHT22;1893;52.526;13.360;2022-09-03T12:38:50;21.80;99.90
3756;DHT22;1893;52.526;13.360;2022-09-03T12:41:27;21.80;99.90
3756;DHT22;1893;52.526;13.360;2022-09-03T12:43:57;21.70;99.90
3756;DHT22;1893;52.526;13.360;2022-09-03T12:46:27;21.70;99.90
3756;DHT22;1893;52.526;13.360;2022-09-03T12:48:54;21.70;99.90
3756;DHT22;1893;52.526;13.360;2022-09-03T12:51:20;21.90;99.90
3756;DHT22;1893;52.526;13.360;2022-09-03T12:53:47;22.00;99.90
3756;DHT22;1893;52.526;13.360;2022-09-03T12:56:15;22.00;99.90
3756;DHT22;1893;52.526;13.360;2022-09-03T12:58:48;22.20;99.90
3756;DHT22;1893;52.526;13.360;2022-09-03T13:01:30;22.30;99.90
3756;DHT22;1893;52.526;13.360;2022-09-03T13:04:04;22.80;99.90
3756;DHT22;1893;52.526;13.360;2022-09-03T13:06:55;22.80;99.90
3756;DHT22;1893;52.526;13.360;2022-09-03T13:09:26;22.50;99.90
3756;DHT22;1893;52.526;13.360;2022-09-03T13:11:55;22.40;99.90
3756;DHT22;1893;52.526;13.360;2022-09-03T13:14:25;22.40;99.90
3756;DHT22;1893;52.526;13.360;2022-09-03T13:29:07;22.00;99.90
3756;DHT22;1893;52.526;13.360;2022-09-03T13:31:56;21.90;99.90
3756;DHT22;1893;52.526;13.360;2022-09-03T13:34:34;21.80;99.90
3756;DHT22;1893;52.526;13.360;2022-09-03T13:37:29;21.80;99.90
3756;DHT22;1893;52.526;13.360;2022-09-03T13:40:02;22.20;99.90
3756;DHT22;1893;52.526;13.360;2022-09-03T13:43:22;22.10;99.90
3756;DHT22;1893;52.526;13.360;2022-09-03T13:45:34;21.80;99.90
3756;DHT22;1893;52.526;13.360;2022-09-03T13:48:09;21.50;99.90
3756;DHT22;1893;52.526;13.360;2022-09-03T13:51:09;21.50;99.90
3756;DHT22;1893;52.526;13.360;2022-09-03T13:53:56;21.60;99.90
3756;DHT22;1893;52.526;13.360;2022-09-03T13:56:48;21.70;99.90
3756;DHT22;1893;52.526;13.360;2022-09-03T13:59:34;21.70;99.90
3756;DHT22;1893;52.526;13.360;2022-09-03T14:04:54;22.30;99.90
3756;DHT22;1893;52.526;13.360;2022-09-03T14:15:31;21.70;99.90
3756;DHT22;1893;52.526;13.360;2022-09-03T14:20:58;21.70;99.90
3756;DHT22;1893;52.526;13.360;2022-09-03T14:24:02;21.90;99.90
3756;DHT22;1893;52.526;13.360;2022-09-03T14:26:33;21.90;99.90
3756;DHT22;1893;52.526;13.360;2022-09-03T14:39:53;22.30;99.90
3756;DHT22;1893;52.526;13.360;2022-09-03T14:53:55;22.00;99.90
3756;DHT22;1893;52.526;13.360;2022-09-03T15:07:55;22.40;99.90
3756;DHT22;1893;52.526;13.360;2022-09-03T15:10:28;22.30;99.90
3756;DHT22;1893;52.526;13.360;2022-09-03T15:13:00;22.30;99.90
3756;DHT22;1893;52.526;13.360;2022-09-03T15:15:44;22.10;99.90
3756;DHT22;1893;52.526;13.360;2022-09-03T15:24:20;21.90;99.90
3756;DHT22;1893;52.526;13.360;2022-09-03T15:26:55;21.80;99.90
3756;DHT22;1893;52.526;13.360;2022-09-03T15:35:12;23.00;99.90
3756;DHT22;1893;52.526;13.360;2022-09-03T15:37:51;23.40;99.90
3756;DHT22;1893;52.526;13.360;2022-09-03T15:40:28;23.90;99.90
3756;DHT22;1893;52.526;13.360;2022-09-03T15:43:24;23.80;99.90
3756;DHT22;1893;52.526;13.360;2022-09-03T15:46:09;23.80;99.90
3756;DHT22;1893;52.526;13.360;2022-09-03T15:51:34;23.50;99.90
3756;DHT22;1893;52.526;13.360;2022-09-03T15:54:20;22.90;99.90
3756;DHT22;1893;52.526;13.360;2022-09-03T15:57:20;22.40;99.90
3756;DHT22;1893;52.526;13.360;2022-09-03T16:00:00;22.20;99.90
3756;DHT22;1893;52.526;13.360;2022-09-03T16:02:57;22.30;99.90
3756;DHT22;1893;52.526;13.360;2022-09-03T16:19:20;22.10;99.90
3756;DHT22;1893;52.526;13.360;2022-09-03T16:21:58;22.10;99.90
3756;DHT22;1893;52.526;13.360;2022-09-03T16:27:29;22.00;99.90
3756;DHT22;1893;52.526;13.360;2022-09-03T16:30:07;21.90;99.90
3756;DHT22;1893;52.526;13.360;2022-09-03T16:33:05;21.80;99.90
3756;DHT22;1893;52.526;13.360;2022-09-03T16:38:26;21.60;99.90
3756;DHT22;1893;52.526;13.360;2022-09-03T16:43:56;21.40;99.90
3756;DHT22;1893;52.526;13.360;2022-09-03T16:46:35;21.30;99.90
3756;DHT22;1893;52.526;13.360;2022-09-03T16:51:36;21.30;99.90
3756;DHT22;1893;52.526;13.360;2022-09-03T16:57:40;21.20;99.90
3756;DHT22;1893;52.526;13.360;2022-09-03T17:00:12;21.20;99.90
3756;DHT22;1893;52.526;13.360;2022-09-03T17:11:18;21.00;99.90
3756;DHT22;1893;52.526;13.360;2022-09-03T17:13:58;21.00;99.90
3756;DHT22;1893;52.526;13.360;2022-09-03T17:22:22;20.90;99.90
3756;DHT22;1893;52.526;13.360;2022-09-03T17:24:54;20.80;99.90
3756;DHT22;1893;52.526;13.360;2022-09-03T17:27:51;20.80;99.90
3756;DHT22;1893;52.526;13.360;2022-09-03T17:30:31;20.80;99.90
3756;DHT22;1893;52.526;13.360;2022-09-03T17:39:15;20.70;99.90
3756;DHT22;1893;52.526;13.360;2022-09-03T17:44:37;20.50;99.90
3756;DHT22;1893;52.526;13.360;2022-09-03T17:52:49;20.50;99.90
3756;DHT22;1893;52.526;13.360;2022-09-03T17:55:35;20.50;99.90
3756;DHT22;1893;52.526;13.360;2022-09-03T17:58:16;20.40;99.90
3756;DHT22;1893;52.526;13.360;2022-09-03T18:01:03;20.30;99.90
3756;DHT22;1893;52.526;13.360;2022-09-03T18:03:54;20.20;99.90
3756;DHT22;1893;52.526;13.360;2022-09-03T18:06:59;20.20;99.90
3756;DHT22;1893;52.526;13.360;2022-09-03T18:09:34;20.20;99.90
3756;DHT22;1893;52.526;13.360;2022-09-03T18:12:11;20.10;99.90
3756;DHT22;1893;52.526;13.360;2022-09-03T18:14:51;20.10;99.90
3756;DHT22;1893;52.526;13.360;2022-09-03T18:20:02;20.00;99.90
3756;DHT22;1893;52.526;13.360;2022-09-03T18:25:41;19.90;99.90
3756;DHT22;1893;52.526;13.360;2022-09-03T18:28:51;20.00;99.90
3756;DHT22;1893;52.526;13.360;2022-09-03T18:31:36;19.90;99.90
3756;DHT22;1893;52.526;13.360;2022-09-03T18:34:30;19.90;99.90
3756;DHT22;1893;52.526;13.360;2022-09-03T18:37:26;19.90;99.90
3756;DHT22;1893;52.526;13.360;2022-09-03T18:40:15;19.90;99.90
3756;DHT22;1893;52.526;13.360;2022-09-03T18:43:21;19.90;99.90
3756;DHT22;1893;52.526;13.360;2022-09-03T18:46:24;19.90;99.90
3756;DHT22;1893;52.526;13.360;2022-09-03T18:58:06;19.90;99.90
3756;DHT22;1893;52.526;13.360;2022-09-03T19:01:29;19.80;99.90
3756;DHT22;1893;52.526;13.360;2022-09-03T19:04:20;19.80;99.90
3756;DHT22;1893;52.526;13.360;2022-09-03T19:07:10;19.80;99.90
3756;DHT22;1893;52.526;13.360;2022-09-03T19:16:03;19.60;99.90
3756;DHT22;1893;52.526;13.360;2022-09-03T19:19:02;19.60;99.90
3756;DHT22;1893;52.526;13.360;2022-09-03T19:21:54;19.60;99.90
3756;DHT22;1893;52.526;13.360;2022-09-03T19:24:39;19.60;99.90
3756;DHT22;1893;52.526;13.360;2022-09-03T19:27:42;19.60;99.90
3756;DHT22;1893;52.526;13.360;2022-09-03T19:37:28;19.50;99.90
3756;DHT22;1893;52.526;13.360;2022-09-03T19:43:04;19.50;99.90
3756;DHT22;1893;52.526;13.360;2022-09-03T19:49:23;19.40;99.90
3756;DHT22;1893;52.526;13.360;2022-09-03T19:52:33;19.40;99.90
3756;DHT22;1893;52.526;13.360;2022-09-03T19:55:26;19.40;99.90
3756;DHT22;1893;52.526;13.360;2022-09-03T19:58:16;19.50;99.90
3756;DHT22;1893;52.526;13.360;2022-09-03T20:01:01;19.40;99.90
3756;DHT22;1893;52.526;13.360;2022-09-03T20:03:45;19.40;99.90
3756;DHT22;1893;52.526;13.360;2022-09-03T20:06:32;19.40;99.90
3756;DHT22;1893;52.526;13.360;2022-09-03T20:09:19;19.40;99.90
3756;DHT22;1893;52.526;13.360;2022-09-03T20:12:06;19.40;99.90
3756;DHT22;1893;52.526;13.360;2022-09-03T20:14:35;19.40;99.90
3756;DHT22;1893;52.526;13.360;2022-09-03T20:17:09;19.40;99.90
3756;DHT22;1893;52.526;13.360;2022-09-03T20:20:06;19.40;99.90
3756;DHT22;1893;52.526;13.360;2022-09-03T20:22:57;19.40;99.90
3756;DHT22;1893;52.526;13.360;2022-09-03T20:28:36;19.30;99.90
3756;DHT22;1893;52.526;13.360;2022-09-03T20:31:21;19.30;99.90
3756;DHT22;1893;52.526;13.360;2022-09-03T20:36:38;19.20;99.90
3756;DHT22;1893;52.526;13.360;2022-09-03T20:42:09;19.20;99.90
3756;DHT22;1893;52.526;13.360;2022-09-03T20:45:03;19.20;99.90
3756;DHT22;1893;52.526;13.360;2022-09-03T20:48:02;19.10;99.90
3756;DHT22;1893;52.526;13.360;2022-09-03T20:59:14;19.10;99.90
3756;DHT22;1893;52.526;13.360;2022-09-03T21:01:56;19.00;99.90
3756;DHT22;1893;52.526;13.360;2022-09-03T21:10:33;19.00;99.90
3756;DHT22;1893;52.526;13.360;2022-09-03T21:13:15;18.90;99.90
3756;DHT22;1893;52.526;13.360;2022-09-03T21:15:56;18.90;99.90
3756;DHT22;1893;52.526;13.360;2022-09-03T21:24:13;18.90;99.90
3756;DHT22;1893;52.526;13.360;2022-09-03T21:26:40;18.80;99.90
3756;DHT22;1893;52.526;13.360;2022-09-03T21:29:30;18.80;99.90
3756;DHT22;1893;52.526;13.360;2022-09-03T21:32:16;18.80;99.90
3756;DHT22;1893;52.526;13.360;2022-09-03T21:34:53;18.80;99.90
3756;DHT22;1893;52.526;13.360;2022-09-03T21:37:21;18.70;99.90
3756;DHT22;1893;52.526;13.360;2022-09-03T21:39:54;18.70;99.90